Pagrindinis puslapis
METAR-TAF:

METAR-TAF

Oro uostai :

Itaituba, Para, Brazilija

platuma: 04-15S, ilguma: 056-00W, Aukštis: 34 m

Dabartinis oras

Ataskaita buvo paskelbta 1 valandą ir 6 minutes, ne 03:00 UTC
Ramus vėjas
Temperatūra 26°C
Drėgmė 94%
Slėgis 1012 hPa
Matomumas 10 km arba daugiau
Mažai debesys ne aukštis 1800 ft

METAR: SBIH 290300Z 00000KT 9999 FEW018 26/25 Q1012

Laikas: 01:06 (04:06 UTC)

Prognozė

Ataskaita buvo paskelbta 7 valandos ir 6 minutes, ne 21:00 UTC
Prognozė galioja nuo 29 metu 00 UTC su 29 metu 12 UTC
Vėjas kt iš Šiaurės
Matomumas 10 km arba daugiau
Mažai debesys ne aukštis 1500 ft
Tikimybė 30%
nuo 29 metu 10 UTC su 29 metu 12 UTC
Matomumas: 5000 m
Išsisklaidę debesys ne aukštis 700 ft
rūkana

TAF: SBIH 282100Z 2900/2912 00000KT 9999 FEW015 TN24/2906Z TX26/2912Z PROB30 2910/2912 5000 BR SCT007 RMK PEH

Orai ataskaitas ir orų prognozės (METAR, TAF).

turimą stotys yra geltonos ir raudonos taškus žemėlapyje.

Perkelti pele per norėdami pamatyti stoties vardą.

Tada spustelėkite, norėdami matyti oro stebėjimo ir prognozės.

Norėdami pakeisti žemėlapį: spustelėkite ant žalios mygtukų su juodo kryžiaus žemyn,; žalią mygtuką su brūkšneliu, jei norite nutolinti; arba žalių rodyklių gretimoms žemėlapius.


METAR-TAF: